createdAt,value
2023-10-12T00:01:02.526Z,33.10
2023-10-12T00:03:35.518Z,26.90
2023-10-12T00:06:07.950Z,33.50
2023-10-12T00:08:37.845Z,29.30
2023-10-12T00:11:08.989Z,31.00
2023-10-12T00:13:43.001Z,26.40
2023-10-12T00:16:13.450Z,21.40
2023-10-12T00:18:47.170Z,19.20
2023-10-12T00:21:27.080Z,17.90
2023-10-12T00:23:58.450Z,29.60
2023-10-12T00:26:31.970Z,26.40
2023-10-12T00:29:01.818Z,20.30
2023-10-12T00:31:31.781Z,24.00
2023-10-12T00:34:03.959Z,17.70
2023-10-12T00:36:38.664Z,20.60
2023-10-12T00:39:12.287Z,40.00
2023-10-12T00:41:45.886Z,19.70
2023-10-12T00:44:20.466Z,18.10
2023-10-12T00:46:59.951Z,20.00
2023-10-12T00:49:30.450Z,17.40
2023-10-12T00:52:50.153Z,18.80
2023-10-12T00:55:22.931Z,28.90
2023-10-12T00:57:52.451Z,25.00
2023-10-12T01:00:22.138Z,19.50
2023-10-12T01:03:08.421Z,43.70
2023-10-12T01:05:37.771Z,44.50
2023-10-12T01:08:07.130Z,49.00
2023-10-12T01:10:42.354Z,29.90
2023-10-12T01:13:11.594Z,28.90
2023-10-12T01:15:41.727Z,25.50
2023-10-12T01:18:13.245Z,28.60
2023-10-12T01:20:43.060Z,22.40
2023-10-12T01:23:12.569Z,21.10
2023-10-12T01:25:44.446Z,19.00
2023-10-12T01:28:14.143Z,19.80
2023-10-12T01:30:45.694Z,25.20
2023-10-12T01:33:14.989Z,31.40
2023-10-12T01:35:50.807Z,19.80
2023-10-12T01:38:23.328Z,18.80
2023-10-12T01:40:56.723Z,21.80
2023-10-12T01:43:29.316Z,21.90
2023-10-12T01:46:02.737Z,19.10
2023-10-12T01:48:35.189Z,17.90
2023-10-12T01:51:16.257Z,18.40
2023-10-12T01:53:45.566Z,23.20
2023-10-12T01:56:14.771Z,24.60
2023-10-12T01:58:44.968Z,19.10
2023-10-12T02:01:20.591Z,24.70
2023-10-12T02:03:55.897Z,21.60
2023-10-12T02:06:29.914Z,21.60
2023-10-12T02:09:12.185Z,22.10
2023-10-12T02:11:45.182Z,19.40
2023-10-12T02:14:24.596Z,25.40
2023-10-12T02:16:56.781Z,20.60
2023-10-12T02:19:44.101Z,23.50
2023-10-12T02:22:21.527Z,22.30
2023-10-12T02:25:18.595Z,20.10
2023-10-12T02:27:59.579Z,24.50
2023-10-12T02:30:32.030Z,14.90
2023-10-12T02:33:02.257Z,21.80
2023-10-12T02:35:38.148Z,21.70
2023-10-12T02:38:12.691Z,22.70
2023-10-12T02:40:45.851Z,27.60
2023-10-12T02:43:17.328Z,26.40
2023-10-12T02:45:50.517Z,24.50
2023-10-12T02:48:25.002Z,23.00
2023-10-12T02:51:02.018Z,25.20
2023-10-12T02:53:31.628Z,28.20
2023-10-12T02:56:08.305Z,22.60
2023-10-12T02:58:37.702Z,21.40
2023-10-12T03:01:23.385Z,18.20
2023-10-12T03:03:56.507Z,20.10
2023-10-12T03:06:26.647Z,21.80
2023-10-12T03:09:01.976Z,18.70
2023-10-12T03:11:33.168Z,32.80
2023-10-12T03:14:05.332Z,19.40
2023-10-12T03:16:42.646Z,18.30
2023-10-12T03:19:27.512Z,25.00
2023-10-12T03:22:05.326Z,22.50
2023-10-12T03:25:03.954Z,20.00
2023-10-12T03:27:35.333Z,19.20
2023-10-12T03:30:10.723Z,25.80
2023-10-12T03:32:42.691Z,20.50
2023-10-12T03:35:23.735Z,25.70
2023-10-12T03:37:56.495Z,22.00
2023-10-12T03:40:45.759Z,24.40
2023-10-12T03:43:27.520Z,19.10
2023-10-12T03:45:59.505Z,25.30
2023-10-12T03:49:09.777Z,19.50
2023-10-12T03:51:41.334Z,21.60
2023-10-12T03:54:27.776Z,26.70
2023-10-12T03:57:39.615Z,19.70
2023-10-12T04:00:09.939Z,18.70
2023-10-12T04:02:49.274Z,18.10
2023-10-12T04:05:36.889Z,27.60
2023-10-12T04:08:06.287Z,25.20
2023-10-12T04:10:47.627Z,27.20
2023-10-12T04:13:29.326Z,34.40
2023-10-12T04:16:07.450Z,29.70
2023-10-12T04:18:51.090Z,27.10
2023-10-12T04:21:34.819Z,34.00
2023-10-12T04:24:17.226Z,25.90
2023-10-12T04:27:06.592Z,26.30
2023-10-12T04:29:40.086Z,26.00
2023-10-12T04:32:16.958Z,23.90
2023-10-12T04:34:50.996Z,19.30
2023-10-12T04:37:29.488Z,31.30
2023-10-12T04:39:58.865Z,27.70
2023-10-12T04:42:35.487Z,73.00
2023-10-12T04:45:11.322Z,81.50
2023-10-12T04:47:47.150Z,56.30
2023-10-12T04:50:28.413Z,39.50
2023-10-12T04:53:10.662Z,46.20
2023-10-12T04:55:49.183Z,69.00
2023-10-12T04:58:32.799Z,46.90
2023-10-12T05:01:16.514Z,41.80
2023-10-12T05:04:05.771Z,38.70
2023-10-12T05:06:37.963Z,38.50
2023-10-12T05:09:12.590Z,35.70
2023-10-12T05:11:42.026Z,33.90
2023-10-12T05:14:15.770Z,47.10
2023-10-12T05:16:46.749Z,32.50
2023-10-12T05:19:16.482Z,30.70
2023-10-12T05:21:45.929Z,34.20
2023-10-12T05:24:15.615Z,33.60
2023-10-12T05:26:53.533Z,40.40
2023-10-12T05:29:25.347Z,25.70
2023-10-12T05:32:38.126Z,34.60
2023-10-12T05:35:15.232Z,23.10
2023-10-12T05:37:51.064Z,23.10
2023-10-12T05:40:21.866Z,32.70
2023-10-12T05:42:52.445Z,23.10
2023-10-12T05:45:29.009Z,29.30
2023-10-12T05:47:58.890Z,23.90
2023-10-12T05:50:32.074Z,21.70
2023-10-12T05:53:01.489Z,28.40
2023-10-12T05:55:35.176Z,53.50
2023-10-12T05:58:15.036Z,24.70
2023-10-12T06:00:47.707Z,27.10
2023-10-12T06:03:17.097Z,33.10
2023-10-12T06:05:46.619Z,26.70
2023-10-12T06:08:18.122Z,23.40
2023-10-12T06:10:47.553Z,20.90
2023-10-12T06:13:17.646Z,22.00
2023-10-12T06:15:54.660Z,21.80
2023-10-12T06:18:27.046Z,25.00
2023-10-12T06:21:08.748Z,17.70
2023-10-12T06:23:40.884Z,11.90
2023-10-12T06:26:18.864Z,13.80
2023-10-12T06:28:49.828Z,9.90
2023-10-12T06:31:23.120Z,11.50
2023-10-12T06:34:01.056Z,11.30
2023-10-12T06:36:39.733Z,11.20
2023-10-12T06:39:18.888Z,11.70
2023-10-12T06:41:48.633Z,14.70
2023-10-12T06:44:27.131Z,15.70
2023-10-12T06:47:17.070Z,18.00
2023-10-12T06:51:12.774Z,16.30
2023-10-12T06:53:46.327Z,15.40
2023-10-12T06:56:21.298Z,11.40
2023-10-12T06:59:13.202Z,13.00
2023-10-12T07:01:47.986Z,28.40
2023-10-12T07:04:22.344Z,15.20
2023-10-12T07:06:58.576Z,17.60
2023-10-12T07:09:41.756Z,16.30
2023-10-12T07:12:21.794Z,14.60
2023-10-12T07:15:01.242Z,10.90
2023-10-12T07:17:33.856Z,20.40
2023-10-12T07:20:05.004Z,15.30
2023-10-12T07:22:40.826Z,22.70
2023-10-12T07:25:10.064Z,110.50
2023-10-12T07:27:50.376Z,22.00
2023-10-12T07:30:32.168Z,18.10
2023-10-12T07:33:08.922Z,12.80
2023-10-12T07:35:43.741Z,14.90
2023-10-12T07:38:26.931Z,23.70
2023-10-12T07:41:02.165Z,17.40
2023-10-12T07:43:39.755Z,18.20
2023-10-12T07:46:15.809Z,13.60
2023-10-12T07:48:46.543Z,17.00
2023-10-12T07:51:17.216Z,25.00
2023-10-12T07:53:52.462Z,15.40
2023-10-12T07:56:23.823Z,16.50
2023-10-12T07:58:58.890Z,13.20
2023-10-12T08:01:29.933Z,14.10
2023-10-12T08:04:02.780Z,14.90
2023-10-12T08:06:43.974Z,18.90
2023-10-12T08:09:34.976Z,12.00
2023-10-12T08:12:26.816Z,17.80
2023-10-12T08:14:57.236Z,13.50
2023-10-12T08:17:27.465Z,20.90
2023-10-12T08:20:14.382Z,15.20
2023-10-12T08:22:43.785Z,13.30
2023-10-12T08:25:16.074Z,11.60
2023-10-12T08:27:55.119Z,16.10
2023-10-12T08:30:47.515Z,13.30
2023-10-12T08:33:17.220Z,18.50
2023-10-12T08:36:39.658Z,17.80
2023-10-12T08:39:10.230Z,27.50
2023-10-12T08:41:59.425Z,20.60
2023-10-12T08:44:29.253Z,17.90
2023-10-12T08:47:00.998Z,12.10
2023-10-12T08:49:36.754Z,20.20
2023-10-12T08:52:20.242Z,16.90
2023-10-12T08:55:01.572Z,11.70
2023-10-12T08:58:05.533Z,10.20
2023-10-12T09:00:36.311Z,17.10
2023-10-12T09:03:19.705Z,21.60
2023-10-12T09:06:01.862Z,8.10
2023-10-12T09:08:31.024Z,11.70
2023-10-12T09:11:15.121Z,10.80
2023-10-12T09:13:47.473Z,14.20
2023-10-12T09:16:17.287Z,47.70
2023-10-12T09:18:48.548Z,49.10
2023-10-12T09:21:24.078Z,17.20
2023-10-12T09:24:14.105Z,6.30
2023-10-12T09:26:51.142Z,22.30
2023-10-12T09:29:36.759Z,12.50
2023-10-12T09:32:21.160Z,9.60
2023-10-12T09:35:08.981Z,119.40
2023-10-12T09:38:29.101Z,13.60
2023-10-12T09:41:01.770Z,9.60
2023-10-12T09:43:34.746Z,14.00
2023-10-12T09:46:08.354Z,8.10
2023-10-12T09:48:40.585Z,13.60
2023-10-12T09:51:19.325Z,7.40
2023-10-12T09:54:00.590Z,5.30
2023-10-12T09:56:35.857Z,7.50
2023-10-12T09:59:15.064Z,13.40
2023-10-12T10:01:50.348Z,13.80
2023-10-12T10:04:26.376Z,9.10
2023-10-12T10:07:27.183Z,13.30
2023-10-12T10:10:02.470Z,12.20
2023-10-12T10:12:37.039Z,7.40
2023-10-12T10:15:58.046Z,7.40
2023-10-12T10:18:30.508Z,7.40
2023-10-12T10:21:02.620Z,8.60
2023-10-12T10:23:38.544Z,10.70
2023-10-12T10:26:25.283Z,10.20
2023-10-12T10:28:56.542Z,13.50
2023-10-12T10:31:35.952Z,8.90
2023-10-12T10:34:09.306Z,8.70
2023-10-12T10:36:39.270Z,11.30
2023-10-12T10:39:16.911Z,5.80
2023-10-12T10:41:56.024Z,9.70
2023-10-12T10:44:27.572Z,8.30
2023-10-12T10:47:02.173Z,9.70
2023-10-12T10:49:35.103Z,11.30
2023-10-12T10:52:07.472Z,10.70
2023-10-12T10:54:41.094Z,6.10
2023-10-12T10:57:18.861Z,22.90
2023-10-12T10:59:48.288Z,6.60
2023-10-12T11:02:17.635Z,8.10
2023-10-12T11:04:48.041Z,11.70
2023-10-12T11:07:21.576Z,7.70
2023-10-12T11:09:59.481Z,5.80
2023-10-12T11:12:33.042Z,15.60
2023-10-12T11:15:03.300Z,6.10
2023-10-12T11:17:54.668Z,9.70
2023-10-12T11:20:37.027Z,10.30
2023-10-12T11:23:09.714Z,17.40
2023-10-12T11:25:43.031Z,8.20
2023-10-12T11:28:27.891Z,10.70
2023-10-12T11:31:10.620Z,15.60
2023-10-12T11:33:49.874Z,9.30
2023-10-12T11:36:27.037Z,6.60
2023-10-12T11:39:05.644Z,4.40
2023-10-12T11:41:35.798Z,7.60
2023-10-12T11:44:09.101Z,8.90
2023-10-12T11:46:45.182Z,8.70
2023-10-12T11:49:14.493Z,6.80
2023-10-12T11:51:52.441Z,7.90
2023-10-12T11:54:23.235Z,6.90
2023-10-12T11:56:53.331Z,5.40
2023-10-12T11:59:32.413Z,9.50
2023-10-12T12:02:12.300Z,7.90
2023-10-12T12:04:50.236Z,7.20
2023-10-12T12:07:31.213Z,9.90
2023-10-12T12:10:03.143Z,6.40
2023-10-12T12:12:32.477Z,10.00
2023-10-12T12:15:01.905Z,7.70
2023-10-12T12:17:31.308Z,11.60
2023-10-12T12:20:00.893Z,13.70
2023-10-12T12:22:40.429Z,8.70
2023-10-12T12:25:25.326Z,9.80
2023-10-12T12:28:01.096Z,13.60
2023-10-12T12:33:17.109Z,9.90
2023-10-12T12:35:48.910Z,11.00
2023-10-12T12:38:34.944Z,13.40
2023-10-12T12:41:07.279Z,7.10
2023-10-12T12:43:36.896Z,12.70
2023-10-12T12:46:07.451Z,20.40
2023-10-12T12:48:36.833Z,8.70
2023-10-12T12:51:12.691Z,5.40
2023-10-12T12:53:43.971Z,5.80
2023-10-12T12:56:18.642Z,5.50
2023-10-12T12:58:52.981Z,12.40
2023-10-12T13:01:25.286Z,27.00
2023-10-12T13:03:58.070Z,8.80
2023-10-12T13:06:27.639Z,10.30
2023-10-12T13:08:57.034Z,27.20
2023-10-12T13:11:26.662Z,9.20
2023-10-12T13:13:55.945Z,46.80
2023-10-12T13:16:25.190Z,13.20
2023-10-12T13:18:54.881Z,12.60
2023-10-12T13:21:25.081Z,8.20
2023-10-12T13:23:54.480Z,6.30
2023-10-12T13:26:24.496Z,6.70
2023-10-12T13:28:53.893Z,11.00
2023-10-12T13:31:25.244Z,12.80
2023-10-12T13:33:54.764Z,14.70
2023-10-12T13:36:23.954Z,11.50
2023-10-12T13:38:53.354Z,13.30
2023-10-12T13:41:22.620Z,4.30
2023-10-12T13:43:52.057Z,10.10
2023-10-12T13:46:22.185Z,7.70
2023-10-12T13:48:55.092Z,14.20
2023-10-12T13:51:32.924Z,9.90
2023-10-12T13:54:05.048Z,12.60
2023-10-12T13:56:35.975Z,15.40
2023-10-12T13:59:07.188Z,14.40
2023-10-12T14:01:38.074Z,29.10
2023-10-12T14:04:27.787Z,17.30
2023-10-12T14:07:03.092Z,12.40
2023-10-12T14:09:32.922Z,8.50
2023-10-12T14:12:02.493Z,15.30
2023-10-12T14:14:31.901Z,46.00
2023-10-12T14:17:01.446Z,19.30
2023-10-12T14:19:33.957Z,10.40
2023-10-12T14:22:05.900Z,11.50
2023-10-12T14:24:35.371Z,54.40
2023-10-12T14:27:08.025Z,18.10
2023-10-12T14:29:37.662Z,5.30
2023-10-12T14:32:07.315Z,8.00
2023-10-12T14:34:40.050Z,14.70
2023-10-12T14:37:14.898Z,9.80
2023-10-12T14:39:45.033Z,23.80
2023-10-12T14:42:17.350Z,12.90
2023-10-12T14:44:49.982Z,10.30
2023-10-12T14:47:19.437Z,10.60
2023-10-12T14:49:49.879Z,14.20
2023-10-12T14:52:20.747Z,6.70
2023-10-12T14:54:50.349Z,14.50
2023-10-12T14:57:19.710Z,16.30
2023-10-12T14:59:50.976Z,24.10
2023-10-12T15:02:20.265Z,14.50
2023-10-12T15:04:49.671Z,81.40
2023-10-12T15:07:19.198Z,31.30
2023-10-12T15:09:51.140Z,16.80
2023-10-12T15:12:21.044Z,15.80
2023-10-12T15:14:55.604Z,40.50
2023-10-12T15:17:25.409Z,50.60
2023-10-12T15:19:55.396Z,25.70
2023-10-12T15:22:24.910Z,28.10
2023-10-12T15:24:55.348Z,43.70
2023-10-12T15:27:26.438Z,25.10
2023-10-12T15:29:57.253Z,31.30
2023-10-12T15:32:27.110Z,16.10
2023-10-12T15:34:59.129Z,11.20
2023-10-12T15:37:28.523Z,8.50
2023-10-12T15:39:57.855Z,13.20
2023-10-12T15:42:27.494Z,14.40
2023-10-12T15:44:56.798Z,14.10
2023-10-12T15:47:26.083Z,10.30
2023-10-12T15:49:56.999Z,12.40
2023-10-12T15:52:26.464Z,12.40
2023-10-12T15:54:58.461Z,17.50
2023-10-12T15:57:30.059Z,14.10
2023-10-12T16:00:00.878Z,16.70
2023-10-12T16:02:30.982Z,13.60
2023-10-12T16:05:00.521Z,11.10
2023-10-12T16:07:29.713Z,12.30
2023-10-12T16:09:59.238Z,19.70
2023-10-12T16:12:30.265Z,15.40
2023-10-12T16:14:59.664Z,22.90
2023-10-12T16:17:29.413Z,21.10
2023-10-12T16:19:58.775Z,23.00
2023-10-12T16:22:30.849Z,28.90
2023-10-12T16:25:09.645Z,14.30
2023-10-12T16:27:43.526Z,16.30
2023-10-12T16:30:17.976Z,23.10
2023-10-12T16:32:52.170Z,22.20
2023-10-12T16:35:26.734Z,28.10
2023-10-12T16:38:00.726Z,24.90
2023-10-12T16:40:30.223Z,25.20
2023-10-12T16:43:01.176Z,26.90
2023-10-12T16:45:30.734Z,35.40
2023-10-12T16:48:02.963Z,39.90
2023-10-12T16:50:32.384Z,46.00
2023-10-12T16:53:01.810Z,36.50
2023-10-12T16:55:33.349Z,30.90
2023-10-12T16:58:02.759Z,39.00
2023-10-12T17:00:32.242Z,44.70
2023-10-12T17:03:01.645Z,49.10
2023-10-12T17:05:31.464Z,65.30
2023-10-12T17:08:03.842Z,58.60
2023-10-12T17:10:35.105Z,70.20
2023-10-12T17:13:05.913Z,90.10
2023-10-12T17:15:35.279Z,101.20
2023-10-12T17:18:05.540Z,105.60
2023-10-12T17:20:34.776Z,101.30
2023-10-12T17:23:06.986Z,71.20
2023-10-12T17:25:36.327Z,66.00
2023-10-12T17:28:06.116Z,58.60
2023-10-12T17:30:40.205Z,41.40
2023-10-12T17:33:09.440Z,34.90
2023-10-12T17:35:41.394Z,28.20
2023-10-12T17:38:11.611Z,37.50
2023-10-12T17:40:41.939Z,34.40
2023-10-12T17:43:11.686Z,35.50
2023-10-12T17:45:43.099Z,35.90
2023-10-12T17:48:12.507Z,30.50
2023-10-12T17:50:43.545Z,37.10
2023-10-12T17:53:15.517Z,27.10
2023-10-12T17:55:45.004Z,28.70
2023-10-12T17:58:18.770Z,35.60
2023-10-12T18:00:48.149Z,34.30
2023-10-12T18:03:17.474Z,34.00
2023-10-12T18:05:57.537Z,50.50
2023-10-12T18:08:26.945Z,47.90
2023-10-12T18:11:05.990Z,49.70
2023-10-12T18:13:38.191Z,49.30
2023-10-12T18:16:14.305Z,35.30
2023-10-12T18:18:43.924Z,38.90
2023-10-12T18:21:13.966Z,45.20
2023-10-12T18:23:43.484Z,41.60
2023-10-12T18:26:15.873Z,37.80
2023-10-12T18:28:48.120Z,46.10
2023-10-12T18:31:17.791Z,39.10
2023-10-12T18:33:47.185Z,37.70
2023-10-12T18:36:16.643Z,45.60
2023-10-12T18:38:46.447Z,28.60
2023-10-12T18:41:21.607Z,30.10
2023-10-12T18:43:51.855Z,29.30
2023-10-12T18:46:25.784Z,45.60
2023-10-12T18:48:55.868Z,41.30
2023-10-12T18:51:27.091Z,45.50
2023-10-12T18:53:57.940Z,43.50
2023-10-12T18:56:27.160Z,33.30
2023-10-12T18:58:58.513Z,30.60
2023-10-12T19:01:27.945Z,30.60
2023-10-12T19:04:01.279Z,33.50
2023-10-12T19:06:31.095Z,31.40
2023-10-12T19:09:00.328Z,51.80
2023-10-12T19:11:29.617Z,28.60
2023-10-12T19:13:59.280Z,28.70
2023-10-12T19:16:33.122Z,35.60
2023-10-12T19:19:05.212Z,24.30
2023-10-12T19:21:35.938Z,27.90
2023-10-12T19:24:07.502Z,29.70
2023-10-12T19:26:37.671Z,32.60
2023-10-12T19:29:07.456Z,26.80
2023-10-12T19:31:40.163Z,27.00
2023-10-12T19:34:09.723Z,26.60
2023-10-12T19:36:39.737Z,29.10
2023-10-12T19:39:11.850Z,25.00
2023-10-12T19:41:41.256Z,26.30
2023-10-12T19:44:15.678Z,26.00
2023-10-12T19:46:45.752Z,28.70
2023-10-12T19:49:15.631Z,23.20
2023-10-12T19:51:44.953Z,22.90
2023-10-12T19:54:16.362Z,21.90
2023-10-12T19:56:45.980Z,26.70
2023-10-12T19:59:17.957Z,27.00
2023-10-12T20:01:47.651Z,28.00
2023-10-12T20:04:22.446Z,22.60
2023-10-12T20:06:55.097Z,25.60
2023-10-12T20:09:30.592Z,29.90
2023-10-12T20:11:59.903Z,25.80
2023-10-12T20:14:29.910Z,29.00
2023-10-12T20:16:59.474Z,29.90
2023-10-12T20:19:28.723Z,26.50
2023-10-12T20:21:58.339Z,28.80
2023-10-12T20:24:32.243Z,31.50
2023-10-12T20:27:01.639Z,34.70
2023-10-12T20:29:32.078Z,37.60
2023-10-12T20:32:01.344Z,33.40
2023-10-12T20:34:30.687Z,30.30
2023-10-12T20:37:00.425Z,42.30
2023-10-12T20:39:29.885Z,39.50
2023-10-12T20:41:59.206Z,34.50
2023-10-12T20:44:28.588Z,37.40
2023-10-12T20:46:58.727Z,31.30
2023-10-12T20:49:29.815Z,33.20
2023-10-12T20:52:00.180Z,33.40
2023-10-12T20:54:29.890Z,35.80
2023-10-12T20:56:59.240Z,38.30
2023-10-12T20:59:32.317Z,39.20
2023-10-12T21:02:06.011Z,39.10
2023-10-12T21:04:35.612Z,35.90
2023-10-12T21:07:05.704Z,40.40
2023-10-12T21:09:35.210Z,31.50
2023-10-12T21:12:15.897Z,28.10
2023-10-12T21:14:45.360Z,31.20
2023-10-12T21:17:27.875Z,29.50
2023-10-12T21:19:57.334Z,20.50
2023-10-12T21:22:29.300Z,26.50
2023-10-12T21:24:58.881Z,25.50
2023-10-12T21:27:37.843Z,26.80
2023-10-12T21:30:14.020Z,28.50
2023-10-12T21:32:46.645Z,23.20
2023-10-12T21:35:26.592Z,27.00
2023-10-12T21:37:56.095Z,28.80
2023-10-12T21:40:25.423Z,28.60
2023-10-12T21:42:54.820Z,27.40
2023-10-12T21:45:24.296Z,19.50
2023-10-12T21:47:54.811Z,22.20
2023-10-12T21:50:26.170Z,22.90
2023-10-12T21:52:56.004Z,20.10
2023-10-12T21:55:25.949Z,25.40
2023-10-12T21:57:55.740Z,22.30
2023-10-12T22:00:40.999Z,19.20
2023-10-12T22:03:10.408Z,14.20
2023-10-12T22:05:40.622Z,16.60
2023-10-12T22:08:09.832Z,19.20
2023-10-12T22:10:38.940Z,17.60
2023-10-12T22:13:10.452Z,17.60
2023-10-12T22:15:56.764Z,21.30
2023-10-12T22:18:28.342Z,14.20
2023-10-12T22:20:57.730Z,21.10
2023-10-12T22:23:27.641Z,20.60
2023-10-12T22:25:57.277Z,16.90
2023-10-12T22:28:26.595Z,13.00
2023-10-12T22:31:00.623Z,12.80
2023-10-12T22:33:31.246Z,11.60
2023-10-12T22:36:01.324Z,17.50
2023-10-12T22:38:32.609Z,19.20
2023-10-12T22:41:02.573Z,14.20
2023-10-12T22:43:32.321Z,9.70
2023-10-12T22:46:02.625Z,20.50
2023-10-12T22:48:32.946Z,12.70
2023-10-12T22:51:02.245Z,8.70
2023-10-12T22:53:31.573Z,10.00
2023-10-12T22:56:00.950Z,11.40
2023-10-12T22:58:30.800Z,14.50
2023-10-12T23:01:01.869Z,19.30
2023-10-12T23:03:31.937Z,15.50
2023-10-12T23:06:01.096Z,13.90
2023-10-12T23:08:30.428Z,14.00
2023-10-12T23:11:15.780Z,13.60
2023-10-12T23:13:54.655Z,11.90
2023-10-12T23:16:33.924Z,19.70
2023-10-12T23:19:12.366Z,15.20
2023-10-12T23:21:42.834Z,13.00
2023-10-12T23:24:20.215Z,14.40
2023-10-12T23:29:23.738Z,13.40
2023-10-12T23:31:55.570Z,15.30
2023-10-12T23:34:25.305Z,13.60
2023-10-12T23:37:00.441Z,14.40
2023-10-12T23:39:29.940Z,9.60
2023-10-12T23:42:08.866Z,15.50
2023-10-12T23:44:38.244Z,8.70
2023-10-12T23:47:16.796Z,9.30
2023-10-12T23:49:46.983Z,14.10
2023-10-12T23:52:23.709Z,12.50
2023-10-12T23:54:53.033Z,11.40
2023-10-12T23:57:22.274Z,10.40
2023-10-12T23:59:51.410Z,8.40
